createdAt,value
2018-09-25T00:00:20.333Z,4.57
2018-09-25T00:02:54.592Z,4.07
2018-09-25T00:05:28.936Z,4.93
2018-09-25T00:08:03.275Z,3.80
2018-09-25T00:10:37.960Z,5.17
2018-09-25T00:13:12.283Z,4.40
2018-09-25T00:15:46.688Z,6.20
2018-09-25T00:18:21.074Z,5.53
2018-09-25T00:20:55.362Z,4.73
2018-09-25T00:23:29.843Z,6.77
2018-09-25T00:26:04.101Z,5.73
2018-09-25T00:28:38.604Z,7.50
2018-09-25T00:31:13.007Z,8.53
2018-09-25T00:33:47.383Z,6.30
2018-09-25T00:36:22.080Z,9.20
2018-09-25T00:38:56.443Z,7.90
2018-09-25T00:41:30.871Z,7.80
2018-09-25T00:44:05.349Z,9.37
2018-09-25T00:46:39.851Z,15.03
2018-09-25T00:49:14.173Z,5.20
2018-09-25T00:51:48.482Z,5.20
2018-09-25T00:54:22.834Z,6.33
2018-09-25T00:56:57.237Z,5.00
2018-09-25T00:59:31.970Z,5.63
2018-09-25T01:02:06.286Z,6.93
2018-09-25T01:04:40.624Z,7.77
2018-09-25T01:07:14.888Z,9.30
2018-09-25T01:09:49.314Z,8.87
2018-09-25T01:12:23.704Z,7.87
2018-09-25T01:14:57.956Z,17.57
2018-09-25T01:17:32.267Z,11.30
2018-09-25T01:20:06.585Z,41.47
2018-09-25T01:22:41.006Z,21.80
2018-09-25T01:25:15.452Z,12.70
2018-09-25T01:27:49.807Z,6.17
2018-09-25T01:30:24.089Z,7.50
2018-09-25T01:32:58.470Z,7.17
2018-09-25T01:35:32.870Z,10.63
2018-09-25T01:38:07.481Z,9.83
2018-09-25T01:40:41.814Z,9.00
2018-09-25T01:43:16.180Z,15.03
2018-09-25T01:45:50.790Z,25.73
2018-09-25T01:48:25.349Z,24.17
2018-09-25T01:50:59.664Z,14.60
2018-09-25T01:53:34.022Z,16.93
2018-09-25T01:56:08.331Z,17.00
2018-09-25T01:58:42.857Z,11.87
2018-09-25T02:01:17.259Z,9.53
2018-09-25T02:03:51.559Z,7.77
2018-09-25T02:06:25.862Z,7.93
2018-09-25T02:09:00.562Z,7.23
2018-09-25T02:11:34.804Z,8.47
2018-09-25T02:14:09.145Z,9.20
2018-09-25T02:16:43.710Z,10.37
2018-09-25T02:19:18.016Z,9.73
2018-09-25T02:21:52.357Z,7.63
2018-09-25T02:24:26.756Z,7.10
2018-09-25T02:27:01.124Z,8.00
2018-09-25T02:29:35.538Z,9.67
2018-09-25T02:32:09.906Z,8.23
2018-09-25T02:34:44.450Z,7.33
2018-09-25T02:37:18.778Z,7.47
2018-09-25T02:39:53.232Z,9.60
2018-09-25T02:42:27.705Z,10.80
2018-09-25T02:45:01.905Z,15.53
2018-09-25T02:47:36.297Z,11.70
2018-09-25T02:50:10.666Z,13.10
2018-09-25T02:52:45.249Z,14.40
2018-09-25T02:55:19.676Z,14.40
2018-09-25T02:57:54.126Z,10.67
2018-09-25T03:00:28.522Z,11.20
2018-09-25T03:03:02.979Z,8.93
2018-09-25T03:05:37.284Z,10.70
2018-09-25T03:08:12.410Z,10.13
2018-09-25T03:10:46.713Z,10.37
2018-09-25T03:13:21.182Z,12.20
2018-09-25T03:15:55.485Z,11.47
2018-09-25T03:18:29.831Z,8.07
2018-09-25T03:21:04.330Z,7.93
2018-09-25T03:23:38.932Z,11.57
2018-09-25T03:26:13.556Z,12.07
2018-09-25T03:28:48.009Z,11.73
2018-09-25T03:31:22.341Z,11.20
2018-09-25T03:33:56.680Z,12.33
2018-09-25T03:36:31.069Z,9.30
2018-09-25T03:39:05.381Z,12.27
2018-09-25T03:41:39.823Z,12.13
2018-09-25T03:44:14.160Z,14.10
2018-09-25T03:46:48.575Z,10.30
2018-09-25T03:49:22.993Z,9.90
2018-09-25T03:51:57.494Z,10.63
2018-09-25T03:54:31.929Z,10.03
2018-09-25T03:57:06.397Z,9.73
2018-09-25T03:59:40.912Z,10.00
2018-09-25T04:02:15.479Z,13.57
2018-09-25T04:04:49.728Z,9.63
2018-09-25T04:07:24.208Z,11.17
2018-09-25T04:09:58.711Z,10.40
2018-09-25T04:12:33.081Z,13.53
2018-09-25T04:15:07.374Z,13.93
2018-09-25T04:17:41.697Z,13.30
2018-09-25T04:20:16.208Z,12.90
2018-09-25T04:22:50.613Z,11.33
2018-09-25T04:25:24.928Z,14.27
2018-09-25T04:27:59.357Z,12.90
2018-09-25T04:30:34.299Z,11.30
2018-09-25T04:33:08.730Z,13.47
2018-09-25T04:35:43.218Z,10.20
2018-09-25T04:38:17.452Z,12.77
2018-09-25T04:40:51.984Z,11.33
2018-09-25T04:43:26.383Z,14.67
2018-09-25T04:46:00.833Z,17.87
2018-09-25T04:48:35.231Z,11.40
2018-09-25T04:51:09.669Z,10.10
2018-09-25T04:53:44.088Z,14.80
2018-09-25T04:56:18.405Z,15.17
2018-09-25T04:58:52.827Z,16.73
2018-09-25T05:01:27.210Z,18.47
2018-09-25T05:04:01.736Z,13.60
2018-09-25T05:06:36.241Z,14.93
2018-09-25T05:09:12.658Z,15.90
2018-09-25T05:11:47.084Z,13.77
2018-09-25T05:14:21.374Z,14.70
2018-09-25T05:16:55.695Z,18.27
2018-09-25T05:19:30.008Z,18.80
2018-09-25T05:22:04.531Z,17.50
2018-09-25T05:24:38.928Z,14.80
2018-09-25T05:27:13.668Z,17.60
2018-09-25T05:29:48.152Z,19.27
2018-09-25T05:32:22.692Z,16.10
2018-09-25T05:34:57.003Z,19.80
2018-09-25T05:37:31.365Z,19.60
2018-09-25T05:40:05.774Z,15.97
2018-09-25T05:42:40.254Z,13.77
2018-09-25T05:45:15.452Z,15.60
2018-09-25T05:47:49.950Z,19.17
2018-09-25T05:50:24.437Z,20.53
2018-09-25T05:52:58.889Z,16.60
2018-09-25T05:55:33.404Z,14.27
2018-09-25T05:58:07.996Z,18.17
2018-09-25T06:00:42.395Z,14.90
2018-09-25T06:03:16.845Z,12.90
2018-09-25T06:05:51.266Z,12.90
2018-09-25T06:08:25.599Z,14.43
2018-09-25T06:10:59.818Z,14.23
2018-09-25T06:13:34.268Z,15.20
2018-09-25T06:16:08.804Z,16.10
2018-09-25T06:18:43.170Z,13.07
2018-09-25T06:21:17.899Z,16.10
2018-09-25T06:23:52.618Z,14.77
2018-09-25T06:26:26.825Z,18.33
2018-09-25T06:29:01.410Z,16.73
2018-09-25T06:31:35.843Z,13.87
2018-09-25T06:34:10.214Z,14.90
2018-09-25T06:36:45.024Z,17.97
2018-09-25T06:39:19.905Z,20.93
2018-09-25T06:41:54.620Z,17.07
2018-09-25T06:44:28.977Z,16.17
2018-09-25T06:47:03.480Z,15.83
2018-09-25T06:49:38.427Z,18.97
2018-09-25T06:52:12.788Z,19.50
2018-09-25T06:54:47.533Z,14.90
2018-09-25T06:57:22.129Z,15.83
2018-09-25T06:59:56.486Z,19.33
2018-09-25T07:02:30.953Z,22.00
2018-09-25T07:05:05.344Z,16.67
2018-09-25T07:07:39.845Z,16.77
2018-09-25T07:10:14.759Z,13.93
2018-09-25T07:12:49.542Z,18.70
2018-09-25T07:15:24.096Z,17.47
2018-09-25T07:17:58.715Z,17.23
2018-09-25T07:20:33.142Z,19.87
2018-09-25T07:23:07.460Z,16.60
2018-09-25T07:25:41.856Z,17.53
2018-09-25T07:28:16.508Z,16.93
2018-09-25T07:30:50.850Z,17.60
2018-09-25T07:33:25.435Z,16.20
2018-09-25T07:35:59.775Z,17.33
2018-09-25T07:38:34.107Z,18.37
2018-09-25T07:41:08.445Z,15.43
2018-09-25T07:43:42.866Z,18.10
2018-09-25T07:46:17.161Z,14.90
2018-09-25T07:48:51.379Z,13.57
2018-09-25T07:51:26.076Z,15.20
2018-09-25T07:54:00.407Z,13.73
2018-09-25T07:56:34.818Z,14.43
2018-09-25T07:59:09.310Z,13.33
2018-09-25T08:01:43.818Z,12.43
2018-09-25T08:04:18.153Z,13.33
2018-09-25T08:06:52.548Z,16.57
2018-09-25T08:09:26.979Z,11.83
2018-09-25T08:12:01.423Z,13.77
2018-09-25T08:14:35.955Z,11.97
2018-09-25T08:17:10.263Z,15.47
2018-09-25T08:19:45.449Z,16.93
2018-09-25T08:22:20.011Z,13.17
2018-09-25T08:24:54.751Z,12.53
2018-09-25T08:27:29.169Z,13.53
2018-09-25T08:30:03.658Z,14.77
2018-09-25T08:32:37.976Z,9.97
2018-09-25T08:35:12.312Z,14.40
2018-09-25T08:37:46.858Z,11.87
2018-09-25T08:40:21.295Z,11.90
2018-09-25T08:42:55.773Z,9.60
2018-09-25T08:45:30.784Z,8.67
2018-09-25T08:48:05.307Z,13.33
2018-09-25T08:50:39.942Z,11.07
2018-09-25T08:53:14.261Z,11.77
2018-09-25T08:55:48.701Z,9.53
2018-09-25T08:58:25.505Z,9.17
2018-09-25T09:00:59.939Z,14.77
2018-09-25T09:03:34.583Z,18.20
2018-09-25T09:06:08.912Z,12.37
2018-09-25T09:08:43.431Z,10.67
2018-09-25T09:11:18.122Z,9.20
2018-09-25T09:13:52.612Z,15.37
2018-09-25T09:16:27.112Z,13.00
2018-09-25T09:19:01.696Z,7.77
2018-09-25T09:21:36.287Z,12.43
2018-09-25T09:24:10.666Z,11.67
2018-09-25T09:26:44.860Z,8.17
2018-09-25T09:29:19.221Z,8.67
2018-09-25T09:31:53.677Z,8.17
2018-09-25T09:34:28.291Z,9.50
2018-09-25T09:37:03.054Z,10.87
2018-09-25T09:39:37.481Z,9.30
2018-09-25T09:42:12.303Z,7.47
2018-09-25T09:44:46.766Z,11.23
2018-09-25T09:47:20.915Z,11.03
2018-09-25T09:49:56.715Z,11.27
2018-09-25T09:52:30.974Z,13.83
2018-09-25T09:55:05.196Z,11.00
2018-09-25T09:57:39.643Z,36.53
2018-09-25T10:00:14.719Z,12.70
2018-09-25T10:02:49.224Z,8.40
2018-09-25T10:05:24.173Z,11.80
2018-09-25T10:07:58.387Z,7.40
2018-09-25T10:10:32.840Z,10.17
2018-09-25T10:13:07.105Z,7.93
2018-09-25T10:15:41.502Z,8.27
2018-09-25T10:18:15.825Z,9.50
2018-09-25T10:20:50.371Z,7.23
2018-09-25T10:23:24.831Z,6.50
2018-09-25T10:25:59.405Z,8.93
2018-09-25T10:28:33.792Z,8.77
2018-09-25T10:31:08.357Z,9.77
2018-09-25T10:33:42.894Z,6.70
2018-09-25T10:36:17.289Z,9.37
2018-09-25T10:38:51.704Z,6.40
2018-09-25T10:41:26.289Z,7.17
2018-09-25T10:44:00.687Z,9.30
2018-09-25T10:46:34.866Z,8.67
2018-09-25T10:49:09.395Z,5.20
2018-09-25T10:51:43.740Z,7.63
2018-09-25T10:54:18.031Z,4.33
2018-09-25T10:56:52.553Z,5.27
2018-09-25T10:59:26.866Z,5.87
2018-09-25T11:02:01.422Z,7.90
2018-09-25T11:04:35.983Z,5.00
2018-09-25T11:07:10.483Z,7.60
2018-09-25T11:09:45.172Z,4.27
2018-09-25T11:12:19.901Z,5.10
2018-09-25T11:14:54.405Z,3.60
2018-09-25T11:17:28.884Z,4.33
2018-09-25T11:20:03.328Z,7.27
2018-09-25T11:22:38.056Z,2.67
2018-09-25T11:25:12.957Z,3.90
2018-09-25T11:27:47.391Z,2.90
2018-09-25T11:30:21.832Z,4.17
2018-09-25T11:32:56.823Z,3.60
2018-09-25T11:35:32.037Z,7.03
2018-09-25T11:38:06.567Z,3.37
2018-09-25T11:40:40.982Z,4.53
2018-09-25T11:43:15.576Z,3.97
2018-09-25T11:45:50.115Z,4.07
2018-09-25T11:48:24.653Z,3.87
2018-09-25T11:50:59.665Z,4.87
2018-09-25T11:53:34.294Z,3.43
2018-09-25T11:56:08.674Z,4.17
2018-09-25T11:58:43.095Z,4.30
2018-09-25T12:01:17.577Z,3.83
2018-09-25T12:03:52.447Z,4.85
2018-09-25T12:06:27.408Z,3.87
2018-09-25T12:09:02.181Z,6.60
2018-09-25T12:11:37.180Z,4.58
2018-09-25T12:14:12.349Z,5.17
2018-09-25T12:16:48.661Z,3.92
2018-09-25T12:19:23.802Z,4.87
2018-09-25T12:21:58.915Z,5.20
2018-09-25T12:24:33.695Z,6.47
2018-09-25T12:27:08.781Z,4.58
2018-09-25T12:29:43.656Z,9.03
2018-09-25T12:32:18.456Z,5.95
2018-09-25T12:34:53.379Z,5.10
2018-09-25T12:37:28.415Z,5.35
2018-09-25T12:40:03.149Z,4.95
2018-09-25T12:42:38.173Z,5.87
2018-09-25T12:45:13.106Z,3.17
2018-09-25T12:47:48.107Z,5.92
2018-09-25T12:50:23.164Z,5.80
2018-09-25T12:52:58.114Z,5.80
2018-09-25T12:55:33.120Z,4.67
2018-09-25T12:58:08.217Z,5.05
2018-09-25T13:00:43.316Z,4.58
2018-09-25T13:03:18.131Z,3.72
2018-09-25T13:05:53.157Z,3.22
2018-09-25T13:08:28.234Z,4.92
2018-09-25T13:11:03.078Z,3.65
2018-09-25T13:13:37.957Z,3.80
2018-09-25T13:16:13.748Z,2.20
2018-09-25T13:18:48.573Z,4.25
2018-09-25T13:21:23.496Z,4.75
2018-09-25T13:23:58.514Z,6.05
2018-09-25T13:26:33.735Z,3.05
2018-09-25T13:29:08.616Z,5.55
2018-09-25T13:31:43.420Z,3.77
2018-09-25T13:34:18.825Z,5.33
2018-09-25T13:36:53.709Z,4.75
2018-09-25T13:39:28.820Z,2.80
2018-09-25T13:42:12.248Z,2.75
2018-09-25T13:44:47.271Z,4.05
2018-09-25T13:47:22.316Z,5.08
2018-09-25T13:49:57.323Z,5.00
2018-09-25T13:52:32.400Z,4.00
2018-09-25T13:55:07.529Z,3.60
2018-09-25T13:57:42.612Z,3.67
2018-09-25T14:00:18.003Z,3.25
2018-09-25T14:02:53.026Z,3.80
2018-09-25T14:05:28.077Z,4.42
2018-09-25T14:08:03.184Z,3.72
2018-09-25T14:10:38.338Z,4.65
2018-09-25T14:13:13.322Z,5.12
2018-09-25T14:15:48.308Z,3.08
2018-09-25T14:18:23.304Z,4.10
2018-09-25T14:20:58.224Z,5.72
2018-09-25T14:23:33.302Z,3.30
2018-09-25T14:26:07.848Z,3.80
2018-09-25T14:28:42.851Z,3.47
2018-09-25T14:31:18.043Z,4.17
2018-09-25T14:33:52.922Z,3.35
2018-09-25T14:36:28.291Z,4.28
2018-09-25T14:39:03.263Z,3.15
2018-09-25T14:41:38.282Z,4.10
2018-09-25T14:44:13.235Z,4.05
2018-09-25T14:46:48.245Z,3.60
2018-09-25T14:49:23.153Z,4.35
2018-09-25T14:51:57.986Z,4.25
2018-09-25T14:54:33.315Z,3.10
2018-09-25T14:57:08.371Z,3.60
2018-09-25T14:59:43.276Z,3.70
2018-09-25T15:02:18.215Z,14.87
2018-09-25T15:04:53.225Z,3.15
2018-09-25T15:07:28.342Z,3.37
2018-09-25T15:10:03.194Z,2.87
2018-09-25T15:12:38.214Z,3.20
2018-09-25T15:15:13.342Z,3.05
2018-09-25T15:17:48.349Z,3.10
2018-09-25T15:20:23.258Z,2.60
2018-09-25T15:22:58.293Z,2.05
2018-09-25T15:25:33.280Z,4.17
2018-09-25T15:28:08.163Z,4.05
2018-09-25T15:30:43.249Z,2.85
2018-09-25T15:33:18.322Z,3.60
2018-09-25T15:35:53.727Z,3.65
2018-09-25T15:38:28.739Z,4.28
2018-09-25T15:41:03.754Z,3.35
2018-09-25T15:43:38.922Z,3.37
2018-09-25T15:46:13.945Z,3.42
2018-09-25T15:48:48.875Z,3.30
2018-09-25T15:51:24.300Z,3.40
2018-09-25T15:53:58.668Z,4.57
2018-09-25T15:56:33.066Z,5.87
2018-09-25T15:59:07.537Z,3.70
2018-09-25T16:01:41.977Z,4.17
2018-09-25T16:04:16.642Z,4.23
2018-09-25T16:06:51.223Z,4.10
2018-09-25T16:09:25.847Z,3.30
2018-09-25T16:12:00.398Z,4.97
2018-09-25T16:14:34.774Z,8.10
2018-09-25T16:17:09.177Z,6.97
2018-09-25T16:19:43.694Z,4.63
2018-09-25T16:22:18.296Z,4.33
2018-09-25T16:24:52.804Z,6.67
2018-09-25T16:27:27.162Z,5.27
2018-09-25T16:30:01.500Z,3.80
2018-09-25T16:32:36.069Z,6.47
2018-09-25T16:35:10.770Z,2.20
2018-09-25T16:37:45.283Z,6.43
2018-09-25T16:40:19.750Z,5.87
2018-09-25T16:42:54.066Z,5.30
2018-09-25T16:45:28.491Z,6.10
2018-09-25T16:48:02.897Z,7.70
2018-09-25T16:50:37.202Z,10.60
2018-09-25T16:53:11.528Z,5.63
2018-09-25T16:55:45.862Z,7.00
2018-09-25T16:58:20.232Z,6.93
2018-09-25T17:00:54.523Z,12.30
2018-09-25T17:03:28.966Z,6.93
2018-09-25T17:06:03.492Z,4.77
2018-09-25T17:08:38.388Z,6.23
2018-09-25T17:11:12.915Z,3.63
2018-09-25T17:13:47.355Z,4.17
2018-09-25T17:16:21.869Z,5.77
2018-09-25T17:18:56.467Z,10.50
2018-09-25T17:21:30.781Z,6.70
2018-09-25T17:24:05.401Z,9.33
2018-09-25T17:26:40.093Z,6.77
2018-09-25T17:29:14.804Z,6.80
2018-09-25T17:31:49.589Z,8.10
2018-09-25T17:34:23.950Z,5.17
2018-09-25T17:36:58.257Z,7.67
2018-09-25T17:39:32.594Z,5.23
2018-09-25T17:42:07.124Z,5.30
2018-09-25T17:44:41.545Z,5.17
2018-09-25T17:47:16.261Z,2.97
2018-09-25T17:49:50.666Z,6.83
2018-09-25T17:52:25.137Z,6.83
2018-09-25T17:54:59.464Z,6.67
2018-09-25T17:57:33.829Z,7.37
2018-09-25T18:00:08.842Z,9.60
2018-09-25T18:02:43.255Z,10.20
2018-09-25T18:05:17.585Z,4.70
2018-09-25T18:07:52.326Z,6.43
2018-09-25T18:10:26.770Z,4.97
2018-09-25T18:13:01.120Z,7.87
2018-09-25T18:15:35.577Z,3.73
2018-09-25T18:18:10.187Z,6.03
2018-09-25T18:20:44.560Z,8.30
2018-09-25T18:23:19.055Z,3.57
2018-09-25T18:25:53.262Z,4.00
2018-09-25T18:28:27.779Z,6.80
2018-09-25T18:31:02.245Z,7.53
2018-09-25T18:33:36.696Z,6.87
2018-09-25T18:36:11.263Z,5.73
2018-09-25T18:38:45.605Z,5.53
2018-09-25T18:41:19.921Z,4.67
2018-09-25T18:43:54.428Z,6.90
2018-09-25T18:46:28.939Z,4.93
2018-09-25T18:49:03.353Z,5.43
2018-09-25T18:51:37.809Z,5.50
2018-09-25T18:54:12.231Z,6.27
2018-09-25T18:56:46.711Z,6.07
2018-09-25T18:59:21.273Z,4.23
2018-09-25T19:01:55.933Z,5.80
2018-09-25T19:04:30.664Z,8.30
2018-09-25T19:07:05.101Z,6.40
2018-09-25T19:09:39.402Z,4.30
2018-09-25T19:12:14.299Z,6.13
2018-09-25T19:14:48.743Z,6.77
2018-09-25T19:17:23.234Z,3.27
2018-09-25T19:19:57.531Z,5.63
2018-09-25T19:22:31.906Z,4.97
2018-09-25T19:25:06.309Z,6.50
2018-09-25T19:27:40.794Z,5.17
2018-09-25T19:30:15.454Z,6.27
2018-09-25T19:32:49.890Z,5.07
2018-09-25T19:35:24.263Z,8.20
2018-09-25T19:37:58.857Z,6.00
2018-09-25T19:40:33.345Z,6.27
2018-09-25T19:43:07.680Z,7.00
2018-09-25T19:45:41.871Z,5.00
2018-09-25T19:48:16.230Z,4.20
2018-09-25T19:50:50.821Z,4.03
2018-09-25T19:53:25.131Z,4.97
2018-09-25T19:55:59.517Z,3.50
2018-09-25T19:58:33.877Z,4.77
2018-09-25T20:01:08.433Z,7.93
2018-09-25T20:03:42.896Z,5.07
2018-09-25T20:06:17.510Z,4.53
2018-09-25T20:08:51.776Z,5.50
2018-09-25T20:11:26.268Z,4.00
2018-09-25T20:14:00.703Z,7.00
2018-09-25T20:16:35.175Z,5.97
2018-09-25T20:19:09.514Z,6.77
2018-09-25T20:21:43.972Z,5.07
2018-09-25T20:24:18.663Z,4.50
2018-09-25T20:26:53.200Z,4.90
2018-09-25T20:29:27.638Z,4.43
2018-09-25T20:32:09.434Z,5.17
2018-09-25T20:34:43.903Z,6.17
2018-09-25T20:37:18.244Z,5.10
2018-09-25T20:39:52.851Z,4.10
2018-09-25T20:42:27.232Z,8.83
2018-09-25T20:45:01.617Z,4.90
2018-09-25T20:47:36.070Z,4.33
2018-09-25T20:50:10.683Z,3.63
2018-09-25T20:52:45.053Z,9.27
2018-09-25T20:55:19.489Z,4.93
2018-09-25T20:57:54.115Z,5.13
2018-09-25T21:00:28.543Z,6.77
2018-09-25T21:03:02.844Z,5.47
2018-09-25T21:05:37.229Z,5.10
2018-09-25T21:08:11.903Z,4.23
2018-09-25T21:10:46.273Z,3.07
2018-09-25T21:13:20.739Z,6.00
2018-09-25T21:15:55.225Z,5.03
2018-09-25T21:18:29.620Z,4.93
2018-09-25T21:21:04.157Z,6.80
2018-09-25T21:23:38.581Z,5.93
2018-09-25T21:26:13.140Z,5.73
2018-09-25T21:28:47.690Z,4.67
2018-09-25T21:31:21.928Z,5.80
2018-09-25T21:33:56.419Z,8.03
2018-09-25T21:36:30.639Z,7.10
2018-09-25T21:39:05.275Z,5.20
2018-09-25T21:41:39.862Z,5.23
2018-09-25T21:44:14.383Z,5.83
2018-09-25T21:46:48.742Z,6.37
2018-09-25T21:49:23.008Z,6.33
2018-09-25T21:51:57.538Z,9.57
2018-09-25T21:54:32.033Z,7.03
2018-09-25T21:57:06.479Z,7.97
2018-09-25T21:59:40.903Z,5.10
2018-09-25T22:02:15.252Z,5.73
2018-09-25T22:04:49.716Z,3.20
2018-09-25T22:07:24.125Z,3.83
2018-09-25T22:09:58.856Z,6.43
2018-09-25T22:12:33.089Z,5.53
2018-09-25T22:15:07.312Z,5.53
2018-09-25T22:17:41.826Z,3.03
2018-09-25T22:20:16.183Z,5.77
2018-09-25T22:22:50.604Z,5.97
2018-09-25T22:25:24.911Z,5.33
2018-09-25T22:27:59.362Z,5.43
2018-09-25T22:30:33.561Z,5.33
2018-09-25T22:33:08.089Z,7.87
2018-09-25T22:35:42.479Z,6.47
2018-09-25T22:38:16.841Z,7.57
2018-09-25T22:40:51.208Z,7.93
2018-09-25T22:43:25.716Z,4.77
2018-09-25T22:46:00.075Z,5.63
2018-09-25T22:48:34.344Z,5.53
2018-09-25T22:51:08.755Z,5.50
2018-09-25T22:53:43.252Z,7.77
2018-09-25T22:56:17.652Z,4.60
2018-09-25T22:58:51.990Z,7.50
2018-09-25T23:01:26.366Z,5.27
2018-09-25T23:04:00.711Z,8.77
2018-09-25T23:06:35.263Z,6.40
2018-09-25T23:09:11.531Z,6.20
2018-09-25T23:11:45.837Z,7.80
2018-09-25T23:14:20.155Z,5.17
2018-09-25T23:16:54.593Z,7.10
2018-09-25T23:19:29.180Z,7.43
2018-09-25T23:22:03.653Z,8.20
2018-09-25T23:24:38.097Z,7.03
2018-09-25T23:27:12.476Z,5.30
2018-09-25T23:29:46.987Z,4.33
2018-09-25T23:32:21.376Z,5.97
2018-09-25T23:34:55.720Z,6.43
2018-09-25T23:37:30.094Z,4.43
2018-09-25T23:40:04.470Z,4.43
2018-09-25T23:42:56.728Z,6.60
2018-09-25T23:45:30.762Z,5.00
2018-09-25T23:48:05.056Z,4.57
2018-09-25T23:50:41.220Z,5.30
2018-09-25T23:53:15.371Z,5.63
2018-09-25T23:55:50.811Z,4.80
2018-09-25T23:58:26.523Z,5.13
